sensor_id;sensor_type;location;lat;lon;timestamp;pressure;altitude;pressure_sealevel;temperature;humidity
70250;BME280;57644;48.416;-123.374;2022-07-17T00:02:16;101821.00;;;10.58;58.01
70250;BME280;57644;48.416;-123.374;2022-07-17T00:04:47;101821.85;;;10.67;57.71
70250;BME280;57644;48.416;-123.374;2022-07-17T00:07:17;101820.97;;;10.57;58.00
70250;BME280;57644;48.416;-123.374;2022-07-17T00:09:47;101823.51;;;10.66;58.04
70250;BME280;57644;48.416;-123.374;2022-07-17T00:12:17;101820.99;;;10.61;58.33
70250;BME280;57644;48.416;-123.374;2022-07-17T00:15:01;101819.89;;;10.67;58.44
70250;BME280;57644;48.416;-123.374;2022-07-17T00:17:27;101819.65;;;10.66;57.97
70250;BME280;57644;48.416;-123.374;2022-07-17T00:19:49;101822.22;;;10.46;58.47
70250;BME280;57644;48.416;-123.374;2022-07-17T00:22:22;101827.44;;;10.43;58.78
70250;BME280;57644;48.416;-123.374;2022-07-17T00:24:50;101823.94;;;10.34;59.33
70250;BME280;57644;48.416;-123.374;2022-07-17T00:27:20;101823.06;;;10.33;59.44
70250;BME280;57644;48.416;-123.374;2022-07-17T00:29:50;101824.08;;;10.25;59.45
70250;BME280;57644;48.416;-123.374;2022-07-17T00:32:21;101824.13;;;10.35;59.04
70250;BME280;57644;48.416;-123.374;2022-07-17T00:34:51;101822.94;;;10.23;59.00
70250;BME280;57644;48.416;-123.374;2022-07-17T00:37:21;101823.98;;;10.28;58.79
70250;BME280;57644;48.416;-123.374;2022-07-17T00:39:52;101822.55;;;10.17;58.98
70250;BME280;57644;48.416;-123.374;2022-07-17T00:42:22;101825.65;;;10.17;59.08
70250;BME280;57644;48.416;-123.374;2022-07-17T00:44:53;101826.88;;;10.28;58.98
70250;BME280;57644;48.416;-123.374;2022-07-17T00:47:22;101823.92;;;10.35;58.62
70250;BME280;57644;48.416;-123.374;2022-07-17T00:49:53;101822.55;;;10.43;58.83
70250;BME280;57644;48.416;-123.374;2022-07-17T00:52:24;101816.07;;;10.50;58.21
70250;BME280;57644;48.416;-123.374;2022-07-17T00:54:55;101816.21;;;10.55;57.52
70250;BME280;57644;48.416;-123.374;2022-07-17T00:57:26;101815.27;;;10.50;57.47
70250;BME280;57644;48.416;-123.374;2022-07-17T00:59:55;101814.08;;;10.46;57.35
70250;BME280;57644;48.416;-123.374;2022-07-17T01:02:25;101807.73;;;10.57;57.69
70250;BME280;57644;48.416;-123.374;2022-07-17T01:04:55;101802.49;;;10.61;58.09
70250;BME280;57644;48.416;-123.374;2022-07-17T01:07:27;101802.40;;;10.56;57.36
70250;BME280;57644;48.416;-123.374;2022-07-17T01:09:57;101798.47;;;10.59;57.13
70250;BME280;57644;48.416;-123.374;2022-07-17T01:12:41;101797.87;;;10.58;58.04
70250;BME280;57644;48.416;-123.374;2022-07-17T01:14:58;101794.93;;;10.46;57.52
70250;BME280;57644;48.416;-123.374;2022-07-17T01:17:29;101795.38;;;10.40;57.60
70250;BME280;57644;48.416;-123.374;2022-07-17T01:20:00;101790.12;;;10.38;58.28
70250;BME280;57644;48.416;-123.374;2022-07-17T01:22:29;101789.45;;;10.34;58.73
70250;BME280;57644;48.416;-123.374;2022-07-17T01:25:00;101793.75;;;10.13;59.26
70250;BME280;57644;48.416;-123.374;2022-07-17T01:27:29;101787.26;;;10.26;59.45
70250;BME280;57644;48.416;-123.374;2022-07-17T01:30:06;101784.57;;;10.29;59.36
70250;BME280;57644;48.416;-123.374;2022-07-17T01:32:43;101788.22;;;10.36;59.42
70250;BME280;57644;48.416;-123.374;2022-07-17T01:35:01;101782.74;;;10.13;59.00
70250;BME280;57644;48.416;-123.374;2022-07-17T01:37:31;101777.49;;;10.08;58.88
70250;BME280;57644;48.416;-123.374;2022-07-17T01:47:48;101782.84;;;10.17;58.93
70250;BME280;57644;48.416;-123.374;2022-07-17T01:50:30;101783.67;;;10.07;58.90
70250;BME280;57644;48.416;-123.374;2022-07-17T01:52:35;101778.84;;;9.99;59.35
70250;BME280;57644;48.416;-123.374;2022-07-17T01:55:08;101778.76;;;10.04;59.15
70250;BME280;57644;48.416;-123.374;2022-07-17T01:57:34;101776.06;;;10.05;58.99
70250;BME280;57644;48.416;-123.374;2022-07-17T02:00:16;101776.10;;;10.11;58.98
70250;BME280;57644;48.416;-123.374;2022-07-17T02:02:34;101771.91;;;10.03;59.04
70250;BME280;57644;48.416;-123.374;2022-07-17T02:05:25;101774.92;;;10.07;58.89
70250;BME280;57644;48.416;-123.374;2022-07-17T02:07:34;101772.02;;;10.07;59.32
70250;BME280;57644;48.416;-123.374;2022-07-17T02:10:07;101774.19;;;10.10;60.30
70250;BME280;57644;48.416;-123.374;2022-07-17T02:12:35;101774.19;;;10.03;60.43
70250;BME280;57644;48.416;-123.374;2022-07-17T02:15:15;101770.50;;;10.01;60.55
70250;BME280;57644;48.416;-123.374;2022-07-17T02:17:36;101774.66;;;9.94;60.95
70250;BME280;57644;48.416;-123.374;2022-07-17T02:20:08;101774.76;;;9.92;61.17
70250;BME280;57644;48.416;-123.374;2022-07-17T02:22:36;101777.18;;;9.78;60.86
70250;BME280;57644;48.416;-123.374;2022-07-17T02:25:08;101778.73;;;9.81;60.91
70250;BME280;57644;48.416;-123.374;2022-07-17T02:27:36;101778.21;;;9.80;61.02
70250;BME280;57644;48.416;-123.374;2022-07-17T02:30:10;101779.63;;;9.72;61.49
70250;BME280;57644;48.416;-123.374;2022-07-17T02:32:40;101781.05;;;9.71;61.72
70250;BME280;57644;48.416;-123.374;2022-07-17T02:35:09;101777.50;;;9.74;61.56
70250;BME280;57644;48.416;-123.374;2022-07-17T02:37:41;101778.21;;;9.74;61.45
70250;BME280;57644;48.416;-123.374;2022-07-17T02:40:11;101778.96;;;9.69;61.09
70250;BME280;57644;48.416;-123.374;2022-07-17T02:42:40;101780.36;;;9.66;61.17
70250;BME280;57644;48.416;-123.374;2022-07-17T02:45:11;101779.37;;;9.56;61.39
70250;BME280;57644;48.416;-123.374;2022-07-17T02:47:42;101777.71;;;9.63;61.64
70250;BME280;57644;48.416;-123.374;2022-07-17T02:50:12;101777.78;;;9.56;61.45
70250;BME280;57644;48.416;-123.374;2022-07-17T02:52:43;101773.65;;;9.51;61.49
70250;BME280;57644;48.416;-123.374;2022-07-17T02:55:14;101771.75;;;9.46;62.10
70250;BME280;57644;48.416;-123.374;2022-07-17T02:57:46;101771.39;;;9.48;62.04
70250;BME280;57644;48.416;-123.374;2022-07-17T03:00:21;101767.98;;;9.39;62.42
70250;BME280;57644;48.416;-123.374;2022-07-17T03:02:47;101767.30;;;9.34;62.96
70250;BME280;57644;48.416;-123.374;2022-07-17T03:05:17;101765.59;;;9.34;63.60
70250;BME280;57644;48.416;-123.374;2022-07-17T03:07:47;101765.80;;;9.28;63.59
70250;BME280;57644;48.416;-123.374;2022-07-17T03:10:22;101764.97;;;9.18;64.25
70250;BME280;57644;48.416;-123.374;2022-07-17T03:12:47;101762.38;;;9.12;64.73
70250;BME280;57644;48.416;-123.374;2022-07-17T03:15:18;101763.80;;;9.11;65.17
70250;BME280;57644;48.416;-123.374;2022-07-17T03:17:48;101764.69;;;9.13;65.06
70250;BME280;57644;48.416;-123.374;2022-07-17T03:20:20;101770.45;;;9.13;65.36
70250;BME280;57644;48.416;-123.374;2022-07-17T03:22:49;101769.41;;;9.05;65.34
70250;BME280;57644;48.416;-123.374;2022-07-17T03:25:20;101770.20;;;9.05;65.44
70250;BME280;57644;48.416;-123.374;2022-07-17T03:27:49;101768.62;;;9.00;65.55
70250;BME280;57644;48.416;-123.374;2022-07-17T03:30:21;101769.69;;;8.83;66.21
70250;BME280;57644;48.416;-123.374;2022-07-17T03:32:51;101773.83;;;8.84;66.51
70250;BME280;57644;48.416;-123.374;2022-07-17T03:35:21;101772.74;;;8.83;66.70
70250;BME280;57644;48.416;-123.374;2022-07-17T03:37:56;101774.75;;;8.81;67.03
70250;BME280;57644;48.416;-123.374;2022-07-17T03:40:22;101774.43;;;8.73;66.88
70250;BME280;57644;48.416;-123.374;2022-07-17T03:42:52;101773.54;;;8.73;67.38
70250;BME280;57644;48.416;-123.374;2022-07-17T03:45:23;101778.00;;;8.67;67.49
70250;BME280;57644;48.416;-123.374;2022-07-17T03:47:55;101781.28;;;8.55;68.09
70250;BME280;57644;48.416;-123.374;2022-07-17T03:50:26;101779.75;;;8.52;68.25
70250;BME280;57644;48.416;-123.374;2022-07-17T03:52:55;101779.28;;;8.39;68.63
70250;BME280;57644;48.416;-123.374;2022-07-17T03:55:31;101775.23;;;8.45;68.54
70250;BME280;57644;48.416;-123.374;2022-07-17T03:57:55;101773.77;;;8.39;68.91
70250;BME280;57644;48.416;-123.374;2022-07-17T04:00:26;101777.07;;;8.23;69.52
70250;BME280;57644;48.416;-123.374;2022-07-17T04:02:56;101778.81;;;8.27;69.59
70250;BME280;57644;48.416;-123.374;2022-07-17T04:05:26;101777.66;;;8.17;69.93
70250;BME280;57644;48.416;-123.374;2022-07-17T04:07:59;101777.57;;;8.03;70.42
70250;BME280;57644;48.416;-123.374;2022-07-17T04:12:57;101778.36;;;7.93;70.71
70250;BME280;57644;48.416;-123.374;2022-07-17T04:15:27;101780.36;;;7.84;70.94
70250;BME280;57644;48.416;-123.374;2022-07-17T04:17:57;101781.13;;;7.87;70.77
70250;BME280;57644;48.416;-123.374;2022-07-17T04:20:28;101783.64;;;7.77;71.19
70250;BME280;57644;48.416;-123.374;2022-07-17T04:22:59;101786.12;;;7.74;71.29
70250;BME280;57644;48.416;-123.374;2022-07-17T04:25:28;101784.38;;;7.82;71.00
70250;BME280;57644;48.416;-123.374;2022-07-17T04:27:59;101783.61;;;7.82;71.04
70250;BME280;57644;48.416;-123.374;2022-07-17T04:30:29;101783.31;;;7.76;71.25
70250;BME280;57644;48.416;-123.374;2022-07-17T04:33:00;101783.92;;;7.89;70.92
70250;BME280;57644;48.416;-123.374;2022-07-17T04:35:30;101781.43;;;7.96;70.18
70250;BME280;57644;48.416;-123.374;2022-07-17T04:38:00;101790.95;;;7.89;70.63
70250;BME280;57644;48.416;-123.374;2022-07-17T04:40:30;101789.54;;;7.93;70.09
70250;BME280;57644;48.416;-123.374;2022-07-17T04:43:02;101791.95;;;7.97;70.11
70250;BME280;57644;48.416;-123.374;2022-07-17T04:45:32;101788.50;;;7.95;70.18
70250;BME280;57644;48.416;-123.374;2022-07-17T04:48:02;101792.59;;;7.89;70.50
70250;BME280;57644;48.416;-123.374;2022-07-17T04:50:32;101795.73;;;7.94;70.16
70250;BME280;57644;48.416;-123.374;2022-07-17T04:53:02;101788.27;;;7.98;69.92
70250;BME280;57644;48.416;-123.374;2022-07-17T04:55:32;101793.65;;;7.88;70.01
70250;BME280;57644;48.416;-123.374;2022-07-17T04:58:03;101788.60;;;7.95;69.61
70250;BME280;57644;48.416;-123.374;2022-07-17T05:00:34;101793.30;;;7.90;70.13
70250;BME280;57644;48.416;-123.374;2022-07-17T05:03:04;101789.94;;;7.82;70.03
70250;BME280;57644;48.416;-123.374;2022-07-17T05:05:36;101789.39;;;7.76;70.41
70250;BME280;57644;48.416;-123.374;2022-07-17T05:08:06;101788.14;;;7.72;70.56
70250;BME280;57644;48.416;-123.374;2022-07-17T05:10:34;101783.07;;;7.76;70.31
70250;BME280;57644;48.416;-123.374;2022-07-17T05:13:05;101787.80;;;7.63;71.07
70250;BME280;57644;48.416;-123.374;2022-07-17T05:15:36;101789.91;;;7.65;70.86
70250;BME280;57644;48.416;-123.374;2022-07-17T05:18:05;101790.14;;;7.71;71.11
70250;BME280;57644;48.416;-123.374;2022-07-17T05:20:36;101789.66;;;7.70;71.15
70250;BME280;57644;48.416;-123.374;2022-07-17T05:23:08;101795.93;;;7.66;71.29
70250;BME280;57644;48.416;-123.374;2022-07-17T05:25:37;101792.99;;;7.53;71.92
70250;BME280;57644;48.416;-123.374;2022-07-17T05:28:07;101790.94;;;7.61;71.66
70250;BME280;57644;48.416;-123.374;2022-07-17T05:30:37;101791.12;;;7.59;71.73
70250;BME280;57644;48.416;-123.374;2022-07-17T05:33:08;101791.28;;;7.68;71.34
70250;BME280;57644;48.416;-123.374;2022-07-17T05:35:38;101791.96;;;7.56;71.92
70250;BME280;57644;48.416;-123.374;2022-07-17T05:38:10;101789.96;;;7.54;71.98
70250;BME280;57644;48.416;-123.374;2022-07-17T05:40:39;101789.37;;;7.58;71.96
70250;BME280;57644;48.416;-123.374;2022-07-17T05:43:09;101790.44;;;7.48;72.44
70250;BME280;57644;48.416;-123.374;2022-07-17T05:45:41;101792.92;;;7.44;72.69
70250;BME280;57644;48.416;-123.374;2022-07-17T05:48:10;101795.12;;;7.41;72.91
70250;BME280;57644;48.416;-123.374;2022-07-17T05:50:41;101790.43;;;7.44;72.75
70250;BME280;57644;48.416;-123.374;2022-07-17T05:53:11;101787.17;;;7.42;73.02
70250;BME280;57644;48.416;-123.374;2022-07-17T05:55:42;101785.12;;;7.47;72.95
70250;BME280;57644;48.416;-123.374;2022-07-17T05:58:12;101783.56;;;7.36;73.57
70250;BME280;57644;48.416;-123.374;2022-07-17T06:00:42;101782.22;;;7.29;73.90
70250;BME280;57644;48.416;-123.374;2022-07-17T06:03:12;101777.44;;;7.27;74.02
70250;BME280;57644;48.416;-123.374;2022-07-17T06:05:42;101781.69;;;7.24;74.17
70250;BME280;57644;48.416;-123.374;2022-07-17T06:08:14;101782.10;;;7.34;73.74
70250;BME280;57644;48.416;-123.374;2022-07-17T06:10:44;101785.50;;;7.32;74.08
70250;BME280;57644;48.416;-123.374;2022-07-17T06:13:14;101780.99;;;7.37;73.75
70250;BME280;57644;48.416;-123.374;2022-07-17T06:15:44;101781.47;;;7.39;73.92
70250;BME280;57644;48.416;-123.374;2022-07-17T06:18:14;101781.74;;;7.39;74.11
70250;BME280;57644;48.416;-123.374;2022-07-17T06:20:45;101777.16;;;7.37;74.03
70250;BME280;57644;48.416;-123.374;2022-07-17T06:23:15;101777.42;;;7.31;74.28
70250;BME280;57644;48.416;-123.374;2022-07-17T06:25:47;101777.92;;;7.35;73.99
70250;BME280;57644;48.416;-123.374;2022-07-17T06:28:17;101774.44;;;7.25;74.37
70250;BME280;57644;48.416;-123.374;2022-07-17T06:30:46;101771.07;;;7.25;74.42
70250;BME280;57644;48.416;-123.374;2022-07-17T06:33:17;101773.83;;;7.34;74.26
70250;BME280;57644;48.416;-123.374;2022-07-17T06:35:47;101773.72;;;7.23;74.89
70250;BME280;57644;48.416;-123.374;2022-07-17T06:38:18;101770.83;;;7.19;74.96
70250;BME280;57644;48.416;-123.374;2022-07-17T06:40:48;101770.69;;;7.18;74.95
70250;BME280;57644;48.416;-123.374;2022-07-17T06:43:18;101767.77;;;7.17;75.16
70250;BME280;57644;48.416;-123.374;2022-07-17T06:45:49;101773.60;;;7.15;75.24
70250;BME280;57644;48.416;-123.374;2022-07-17T06:48:19;101772.29;;;7.17;75.36
70250;BME280;57644;48.416;-123.374;2022-07-17T06:50:49;101777.96;;;7.23;75.17
70250;BME280;57644;48.416;-123.374;2022-07-17T06:53:20;101778.02;;;7.26;75.11
70250;BME280;57644;48.416;-123.374;2022-07-17T06:55:50;101780.52;;;7.30;74.95
70250;BME280;57644;48.416;-123.374;2022-07-17T06:58:20;101782.33;;;7.44;74.28
70250;BME280;57644;48.416;-123.374;2022-07-17T07:00:51;101778.66;;;7.46;74.37
70250;BME280;57644;48.416;-123.374;2022-07-17T07:03:22;101775.35;;;7.49;74.04
70250;BME280;57644;48.416;-123.374;2022-07-17T07:05:51;101775.25;;;7.26;74.84
70250;BME280;57644;48.416;-123.374;2022-07-17T07:08:22;101772.25;;;7.39;74.26
70250;BME280;57644;48.416;-123.374;2022-07-17T07:10:52;101772.28;;;7.40;74.25
70250;BME280;57644;48.416;-123.374;2022-07-17T07:13:23;101767.81;;;7.47;73.96
70250;BME280;57644;48.416;-123.374;2022-07-17T07:15:53;101766.61;;;7.51;74.18
70250;BME280;57644;48.416;-123.374;2022-07-17T07:18:23;101765.10;;;7.51;74.13
70250;BME280;57644;48.416;-123.374;2022-07-17T07:20:54;101764.92;;;7.54;73.99
70250;BME280;57644;48.416;-123.374;2022-07-17T07:23:24;101762.40;;;7.56;73.63
70250;BME280;57644;48.416;-123.374;2022-07-17T07:25:55;101757.89;;;7.59;73.57
70250;BME280;57644;48.416;-123.374;2022-07-17T07:28:26;101754.78;;;7.65;73.31
70250;BME280;57644;48.416;-123.374;2022-07-17T07:30:55;101747.64;;;7.71;73.02
70250;BME280;57644;48.416;-123.374;2022-07-17T07:33:26;101744.19;;;7.76;72.49
70250;BME280;57644;48.416;-123.374;2022-07-17T07:35:56;101745.25;;;7.71;72.55
70250;BME280;57644;48.416;-123.374;2022-07-17T07:38:26;101743.05;;;7.69;72.63
70250;BME280;57644;48.416;-123.374;2022-07-17T07:40:56;101746.15;;;7.71;72.43
70250;BME280;57644;48.416;-123.374;2022-07-17T07:43:27;101749.66;;;7.71;72.38
70250;BME280;57644;48.416;-123.374;2022-07-17T07:45:58;101747.98;;;7.77;72.05
70250;BME280;57644;48.416;-123.374;2022-07-17T07:48:27;101747.89;;;7.76;72.23
70250;BME280;57644;48.416;-123.374;2022-07-17T07:50:58;101744.01;;;7.68;72.57
70250;BME280;57644;48.416;-123.374;2022-07-17T07:53:29;101739.56;;;7.73;72.52
70250;BME280;57644;48.416;-123.374;2022-07-17T07:55:59;101736.78;;;7.77;72.52
70250;BME280;57644;48.416;-123.374;2022-07-17T07:58:29;101736.42;;;7.75;72.66
70250;BME280;57644;48.416;-123.374;2022-07-17T08:01:00;101735.04;;;7.71;72.62
70250;BME280;57644;48.416;-123.374;2022-07-17T08:03:29;101735.13;;;7.61;72.98
70250;BME280;57644;48.416;-123.374;2022-07-17T08:06:00;101734.19;;;7.65;72.74
70250;BME280;57644;48.416;-123.374;2022-07-17T08:08:31;101732.68;;;7.69;72.58
70250;BME280;57644;48.416;-123.374;2022-07-17T08:11:01;101732.38;;;7.74;72.55
70250;BME280;57644;48.416;-123.374;2022-07-17T08:13:31;101732.93;;;7.73;72.62
70250;BME280;57644;48.416;-123.374;2022-07-17T08:16:02;101732.13;;;7.71;72.49
70250;BME280;57644;48.416;-123.374;2022-07-17T08:18:43;101731.27;;;7.66;72.44
70250;BME280;57644;48.416;-123.374;2022-07-17T08:21:02;101730.63;;;7.66;72.27
70250;BME280;57644;48.416;-123.374;2022-07-17T08:23:33;101730.55;;;7.64;72.65
70250;BME280;57644;48.416;-123.374;2022-07-17T08:26:03;101733.21;;;7.58;72.81
70250;BME280;57644;48.416;-123.374;2022-07-17T08:28:33;101731.06;;;7.62;72.52
70250;BME280;57644;48.416;-123.374;2022-07-17T08:31:04;101728.83;;;7.61;72.74
70250;BME280;57644;48.416;-123.374;2022-07-17T08:33:34;101729.04;;;7.57;72.96
70250;BME280;57644;48.416;-123.374;2022-07-17T08:36:05;101729.97;;;7.53;73.18
70250;BME280;57644;48.416;-123.374;2022-07-17T08:38:35;101730.17;;;7.49;73.40
70250;BME280;57644;48.416;-123.374;2022-07-17T08:41:07;101729.88;;;7.56;72.87
70250;BME280;57644;48.416;-123.374;2022-07-17T08:43:35;101727.24;;;7.57;72.94
70250;BME280;57644;48.416;-123.374;2022-07-17T08:46:06;101731.31;;;7.54;73.18
70250;BME280;57644;48.416;-123.374;2022-07-17T08:48:39;101729.67;;;7.55;73.02
70250;BME280;57644;48.416;-123.374;2022-07-17T08:51:07;101729.32;;;7.58;72.89
70250;BME280;57644;48.416;-123.374;2022-07-17T08:53:37;101731.45;;;7.48;73.29
70250;BME280;57644;48.416;-123.374;2022-07-17T08:56:08;101732.28;;;7.49;73.30
70250;BME280;57644;48.416;-123.374;2022-07-17T08:58:37;101731.52;;;7.41;73.79
70250;BME280;57644;48.416;-123.374;2022-07-17T09:01:08;101727.11;;;7.40;73.91
70250;BME280;57644;48.416;-123.374;2022-07-17T09:03:40;101726.22;;;7.39;73.83
70250;BME280;57644;48.416;-123.374;2022-07-17T09:08:39;101726.96;;;7.42;73.57
70250;BME280;57644;48.416;-123.374;2022-07-17T09:11:10;101725.97;;;7.46;73.29
70250;BME280;57644;48.416;-123.374;2022-07-17T09:13:45;101726.16;;;7.48;73.29
70250;BME280;57644;48.416;-123.374;2022-07-17T09:16:12;101727.34;;;7.51;73.17
70250;BME280;57644;48.416;-123.374;2022-07-17T09:18:44;101729.05;;;7.49;73.27
70250;BME280;57644;48.416;-123.374;2022-07-17T09:21:16;101728.80;;;7.46;73.32
70250;BME280;57644;48.416;-123.374;2022-07-17T09:23:41;101730.36;;;7.47;73.28
70250;BME280;57644;48.416;-123.374;2022-07-17T09:26:14;101730.64;;;7.44;73.60
70250;BME280;57644;48.416;-123.374;2022-07-17T09:28:46;101728.95;;;7.47;73.35
70250;BME280;57644;48.416;-123.374;2022-07-17T09:31:13;101730.94;;;7.49;72.96
70250;BME280;57644;48.416;-123.374;2022-07-17T09:33:43;101726.42;;;7.42;73.25
70250;BME280;57644;48.416;-123.374;2022-07-17T09:36:15;101728.34;;;7.51;72.82
70250;BME280;57644;48.416;-123.374;2022-07-17T09:38:45;101730.39;;;7.52;72.63
70250;BME280;57644;48.416;-123.374;2022-07-17T09:41:16;101734.70;;;7.51;72.80
70250;BME280;57644;48.416;-123.374;2022-07-17T09:43:47;101735.11;;;7.51;72.94
70250;BME280;57644;48.416;-123.374;2022-07-17T09:46:19;101734.11;;;7.50;73.13
70250;BME280;57644;48.416;-123.374;2022-07-17T09:48:48;101736.69;;;7.54;73.04
70250;BME280;57644;48.416;-123.374;2022-07-17T09:51:22;101736.08;;;7.48;73.57
70250;BME280;57644;48.416;-123.374;2022-07-17T09:53:47;101738.02;;;7.53;73.46
70250;BME280;57644;48.416;-123.374;2022-07-17T09:56:18;101738.43;;;7.49;73.77
70250;BME280;57644;48.416;-123.374;2022-07-17T09:58:49;101743.00;;;7.50;73.87
70250;BME280;57644;48.416;-123.374;2022-07-17T10:01:18;101747.24;;;7.51;74.05
70250;BME280;57644;48.416;-123.374;2022-07-17T10:03:49;101745.54;;;7.56;73.82
70250;BME280;57644;48.416;-123.374;2022-07-17T10:06:18;101744.94;;;7.50;74.15
70250;BME280;57644;48.416;-123.374;2022-07-17T10:08:48;101744.09;;;7.51;74.37
70250;BME280;57644;48.416;-123.374;2022-07-17T10:11:20;101742.15;;;7.54;74.05
70250;BME280;57644;48.416;-123.374;2022-07-17T10:13:51;101741.85;;;7.52;74.53
70250;BME280;57644;48.416;-123.374;2022-07-17T10:16:25;101741.37;;;7.58;74.32
70250;BME280;57644;48.416;-123.374;2022-07-17T10:18:49;101743.10;;;7.58;74.46
70250;BME280;57644;48.416;-123.374;2022-07-17T10:21:21;101744.94;;;7.57;74.76
70250;BME280;57644;48.416;-123.374;2022-07-17T10:26:31;101747.51;;;7.54;75.02
70250;BME280;57644;48.416;-123.374;2022-07-17T10:28:51;101740.50;;;7.48;75.66
70250;BME280;57644;48.416;-123.374;2022-07-17T10:31:27;101739.75;;;7.40;76.08
70250;BME280;57644;48.416;-123.374;2022-07-17T10:33:56;101741.32;;;7.35;76.52
70250;BME280;57644;48.416;-123.374;2022-07-17T10:36:34;101740.47;;;7.40;76.23
70250;BME280;57644;48.416;-123.374;2022-07-17T10:38:53;101741.65;;;7.33;76.66
70250;BME280;57644;48.416;-123.374;2022-07-17T10:41:23;101742.68;;;7.36;76.44
70250;BME280;57644;48.416;-123.374;2022-07-17T10:43:54;101742.39;;;7.49;75.78
70250;BME280;57644;48.416;-123.374;2022-07-17T10:46:24;101743.43;;;7.49;75.71
70250;BME280;57644;48.416;-123.374;2022-07-17T10:48:56;101747.16;;;7.43;76.23
70250;BME280;57644;48.416;-123.374;2022-07-17T10:51:26;101744.74;;;7.47;75.90
70250;BME280;57644;48.416;-123.374;2022-07-17T10:53:57;101743.16;;;7.40;76.16
70250;BME280;57644;48.416;-123.374;2022-07-17T10:56:26;101742.37;;;7.44;75.88
70250;BME280;57644;48.416;-123.374;2022-07-17T10:59:01;101738.94;;;7.33;76.35
70250;BME280;57644;48.416;-123.374;2022-07-17T11:01:26;101738.09;;;7.23;76.63
70250;BME280;57644;48.416;-123.374;2022-07-17T11:03:58;101736.42;;;7.27;76.53
70250;BME280;57644;48.416;-123.374;2022-07-17T11:06:30;101732.77;;;7.32;76.22
70250;BME280;57644;48.416;-123.374;2022-07-17T11:08:58;101735.00;;;7.21;76.87
70250;BME280;57644;48.416;-123.374;2022-07-17T11:11:36;101728.56;;;7.09;77.34
70250;BME280;57644;48.416;-123.374;2022-07-17T11:16:29;101730.02;;;6.98;78.08
70250;BME280;57644;48.416;-123.374;2022-07-17T11:18:58;101726.98;;;7.03;77.98
70250;BME280;57644;48.416;-123.374;2022-07-17T11:21:34;101723.77;;;7.06;77.90
70250;BME280;57644;48.416;-123.374;2022-07-17T11:23:59;101718.79;;;7.14;77.61
70250;BME280;57644;48.416;-123.374;2022-07-17T11:26:30;101718.80;;;7.12;77.59
70250;BME280;57644;48.416;-123.374;2022-07-17T11:29:00;101713.66;;;7.06;78.04
70250;BME280;57644;48.416;-123.374;2022-07-17T11:31:31;101716.11;;;7.01;78.40
70250;BME280;57644;48.416;-123.374;2022-07-17T11:34:04;101713.84;;;7.00;78.45
70250;BME280;57644;48.416;-123.374;2022-07-17T11:36:33;101718.61;;;6.98;78.86
70250;BME280;57644;48.416;-123.374;2022-07-17T11:39:05;101721.43;;;6.98;79.59
70250;BME280;57644;48.416;-123.374;2022-07-17T11:41:34;101722.63;;;6.94;80.33
70250;BME280;57644;48.416;-123.374;2022-07-17T11:44:04;101723.80;;;6.90;80.77
70250;BME280;57644;48.416;-123.374;2022-07-17T11:46:35;101720.77;;;6.86;81.25
70250;BME280;57644;48.416;-123.374;2022-07-17T11:49:04;101722.39;;;6.79;81.82
70250;BME280;57644;48.416;-123.374;2022-07-17T11:51:37;101726.72;;;6.77;82.10
70250;BME280;57644;48.416;-123.374;2022-07-17T11:54:06;101727.88;;;6.81;82.16
70250;BME280;57644;48.416;-123.374;2022-07-17T11:56:35;101726.64;;;6.76;82.12
70250;BME280;57644;48.416;-123.374;2022-07-17T11:59:06;101726.97;;;6.78;81.88
70250;BME280;57644;48.416;-123.374;2022-07-17T12:01:40;101726.21;;;6.76;81.91
70250;BME280;57644;48.416;-123.374;2022-07-17T12:04:08;101726.27;;;6.69;82.20
70250;BME280;57644;48.416;-123.374;2022-07-17T12:06:36;101722.46;;;6.62;82.51
70250;BME280;57644;48.416;-123.374;2022-07-17T12:09:07;101724.80;;;6.52;83.06
70250;BME280;57644;48.416;-123.374;2022-07-17T12:14:08;101731.72;;;6.44;83.74
70250;BME280;57644;48.416;-123.374;2022-07-17T12:16:38;101734.16;;;6.47;83.45
70250;BME280;57644;48.416;-123.374;2022-07-17T12:19:11;101730.31;;;6.56;82.63
70250;BME280;57644;48.416;-123.374;2022-07-17T12:24:09;101729.58;;;6.62;82.45
70250;BME280;57644;48.416;-123.374;2022-07-17T12:26:39;101728.38;;;6.54;82.74
70250;BME280;57644;48.416;-123.374;2022-07-17T12:29:09;101730.67;;;6.55;82.68
70250;BME280;57644;48.416;-123.374;2022-07-17T12:31:40;101731.17;;;6.52;82.74
70250;BME280;57644;48.416;-123.374;2022-07-17T12:34:11;101728.61;;;6.57;82.21
70250;BME280;57644;48.416;-123.374;2022-07-17T12:36:40;101728.66;;;6.55;82.36
70250;BME280;57644;48.416;-123.374;2022-07-17T12:39:12;101733.24;;;6.49;83.02
70250;BME280;57644;48.416;-123.374;2022-07-17T12:41:41;101730.30;;;6.45;83.28
70250;BME280;57644;48.416;-123.374;2022-07-17T12:44:12;101731.70;;;6.41;83.68
70250;BME280;57644;48.416;-123.374;2022-07-17T12:46:43;101727.44;;;6.32;84.30
70250;BME280;57644;48.416;-123.374;2022-07-17T12:49:12;101727.69;;;6.32;84.39
70250;BME280;57644;48.416;-123.374;2022-07-17T12:51:42;101728.86;;;6.36;83.93
70250;BME280;57644;48.416;-123.374;2022-07-17T12:54:14;101729.15;;;6.38;83.82
70250;BME280;57644;48.416;-123.374;2022-07-17T12:56:44;101729.64;;;6.36;83.65
70250;BME280;57644;48.416;-123.374;2022-07-17T12:59:14;101732.22;;;6.33;84.18
70250;BME280;57644;48.416;-123.374;2022-07-17T13:01:44;101732.76;;;6.23;84.84
70250;BME280;57644;48.416;-123.374;2022-07-17T13:04:14;101735.15;;;6.19;84.93
70250;BME280;57644;48.416;-123.374;2022-07-17T13:06:45;101732.37;;;6.23;84.67